createdAt,value
2018-07-02T00:00:00.430Z,1011.46
2018-07-02T00:00:36.241Z,1011.45
2018-07-02T00:01:12.823Z,1011.48
2018-07-02T00:01:48.238Z,1011.46
2018-07-02T00:02:23.434Z,1011.46
2018-07-02T00:02:58.757Z,1011.42
2018-07-02T00:03:33.881Z,1011.46
2018-07-02T00:04:09.229Z,1011.45
2018-07-02T00:04:44.569Z,1011.45
2018-07-02T00:05:20.055Z,1011.40
2018-07-02T00:05:55.398Z,1011.39
2018-07-02T00:06:30.682Z,1011.39
2018-07-02T00:07:06.001Z,1011.38
2018-07-02T00:07:41.598Z,1011.39
2018-07-02T00:08:17.309Z,1011.37
2018-07-02T00:08:52.907Z,1011.37
2018-07-02T00:09:28.580Z,1011.37
2018-07-02T00:10:03.724Z,1011.35
2018-07-02T00:10:39.343Z,1011.34
2018-07-02T00:11:14.847Z,1011.33
2018-07-02T00:11:50.637Z,1011.34
2018-07-02T00:12:26.052Z,1011.32
2018-07-02T00:13:01.176Z,1011.34
2018-07-02T00:13:36.476Z,1011.34
2018-07-02T00:14:12.003Z,1011.33
2018-07-02T00:14:47.523Z,1011.32
2018-07-02T00:15:22.968Z,1011.33
2018-07-02T00:15:58.159Z,1011.30
2018-07-02T00:16:33.674Z,1011.29
2018-07-02T00:17:08.773Z,1011.34
2018-07-02T00:17:44.101Z,1011.31
2018-07-02T00:18:19.303Z,1011.32
2018-07-02T00:18:54.645Z,1011.31
2018-07-02T00:19:29.803Z,1011.30
2018-07-02T00:20:05.364Z,1011.31
2018-07-02T00:20:42.063Z,1011.34
2018-07-02T00:21:17.272Z,1011.32
2018-07-02T00:21:52.517Z,1011.32
2018-07-02T00:22:27.813Z,1011.31
2018-07-02T00:23:03.101Z,1011.30
2018-07-02T00:23:38.348Z,1011.32
2018-07-02T00:24:13.639Z,1011.33
2018-07-02T00:24:49.207Z,1011.32
2018-07-02T00:25:24.825Z,1011.29
2018-07-02T00:26:00.048Z,1011.32
2018-07-02T00:26:35.244Z,1011.31
2018-07-02T00:27:10.829Z,1011.35
2018-07-02T00:27:46.253Z,1011.30
2018-07-02T00:28:21.970Z,1011.33
2018-07-02T00:28:57.512Z,1011.30
2018-07-02T00:29:33.150Z,1011.34
2018-07-02T00:30:08.632Z,1011.32
2018-07-02T00:30:45.776Z,1011.34
2018-07-02T00:31:22.088Z,1011.32
2018-07-02T00:31:57.541Z,1011.31
2018-07-02T00:32:32.990Z,1011.32
2018-07-02T00:33:08.621Z,1011.30
2018-07-02T00:33:44.033Z,1011.29
2018-07-02T00:34:19.535Z,1011.31
2018-07-02T00:34:55.058Z,1011.26
2018-07-02T00:35:30.373Z,1011.27
2018-07-02T00:36:05.574Z,1011.26
2018-07-02T00:36:43.427Z,1011.25
2018-07-02T00:37:18.737Z,1011.25
2018-07-02T00:37:54.166Z,1011.25
2018-07-02T00:38:34.414Z,1011.25
2018-07-02T00:39:09.715Z,1011.23
2018-07-02T00:39:45.088Z,1011.25
2018-07-02T00:40:23.610Z,1011.22
2018-07-02T00:40:59.220Z,1011.25
2018-07-02T00:41:34.770Z,1011.19
2018-07-02T00:42:10.091Z,1011.21
2018-07-02T00:42:49.397Z,1011.22
2018-07-02T00:43:24.609Z,1011.22
2018-07-02T00:44:03.170Z,1011.23
2018-07-02T00:44:38.619Z,1011.17
2018-07-02T00:45:13.827Z,1011.17
2018-07-02T00:45:49.131Z,1011.19
2018-07-02T00:46:24.321Z,1011.16
2018-07-02T00:46:59.653Z,1011.17
2018-07-02T00:47:35.206Z,1011.14
2018-07-02T00:48:10.500Z,1011.14
2018-07-02T00:50:46.999Z,1011.09
2018-07-02T00:51:22.499Z,1011.08
2018-07-02T00:51:57.815Z,1011.06
2018-07-02T00:52:33.295Z,1011.09
2018-07-02T00:53:08.772Z,1011.10
2018-07-02T00:53:44.020Z,1011.09
2018-07-02T00:54:19.211Z,1011.08
2018-07-02T00:54:56.752Z,1011.03
2018-07-02T00:55:32.175Z,1011.01
2018-07-02T00:56:07.785Z,1011.02
2018-07-02T00:56:43.090Z,1010.93
2018-07-02T00:57:18.585Z,1010.96
2018-07-02T00:57:54.396Z,1010.96
2018-07-02T00:58:32.787Z,1010.96
2018-07-02T00:59:07.849Z,1010.92
2018-07-02T00:59:43.089Z,1010.91
2018-07-02T01:00:18.264Z,1010.95
2018-07-02T01:00:53.647Z,1010.94
2018-07-02T01:01:28.979Z,1010.93
2018-07-02T01:02:04.490Z,1010.94
2018-07-02T01:02:39.809Z,1010.95
2018-07-02T01:03:15.014Z,1010.92
2018-07-02T01:03:50.321Z,1010.97
2018-07-02T01:04:25.428Z,1010.98
2018-07-02T01:05:00.658Z,1010.95
2018-07-02T01:05:35.773Z,1010.98
2018-07-02T01:06:11.106Z,1010.97
2018-07-02T01:09:25.368Z,1010.95
2018-07-02T01:10:00.590Z,1010.95
2018-07-02T01:10:36.065Z,1010.92
2018-07-02T01:11:11.459Z,1010.89
2018-07-02T01:11:47.086Z,1010.93
2018-07-02T01:12:22.553Z,1010.96
2018-07-02T01:12:57.752Z,1010.93
2018-07-02T01:13:33.031Z,1010.96
2018-07-02T01:14:08.360Z,1010.93
2018-07-02T01:14:47.757Z,1010.92
2018-07-02T01:15:23.209Z,1010.95
2018-07-02T01:15:58.839Z,1010.93
2018-07-02T01:16:34.312Z,1010.95
2018-07-02T01:17:13.597Z,1010.96
2018-07-02T01:20:27.977Z,1010.88
2018-07-02T01:21:03.278Z,1010.85
2018-07-02T01:21:38.964Z,1010.89
2018-07-02T01:22:15.276Z,1010.83
2018-07-02T01:22:50.572Z,1010.81
2018-07-02T01:23:25.651Z,1010.84
2018-07-02T01:24:00.970Z,1010.84
2018-07-02T01:24:36.159Z,1010.85
2018-07-02T01:25:11.407Z,1010.85
2018-07-02T01:25:46.810Z,1010.85
2018-07-02T01:26:22.196Z,1010.88
2018-07-02T01:26:57.289Z,1010.87
2018-07-02T01:27:32.575Z,1010.89
2018-07-02T01:28:07.891Z,1010.91
2018-07-02T01:28:42.989Z,1010.90
2018-07-02T01:29:18.566Z,1010.90
2018-07-02T01:29:53.896Z,1010.91
2018-07-02T01:30:29.573Z,1010.90
2018-07-02T01:31:05.084Z,1010.92
2018-07-02T01:31:40.271Z,1010.89
2018-07-02T01:32:15.972Z,1010.91
2018-07-02T01:32:51.462Z,1010.92
2018-07-02T01:33:26.955Z,1010.94
2018-07-02T01:34:02.664Z,1010.93
2018-07-02T01:34:38.237Z,1010.91
2018-07-02T01:35:13.973Z,1010.92
2018-07-02T01:35:49.276Z,1010.92
2018-07-02T01:36:24.774Z,1010.93
2018-07-02T01:37:00.191Z,1010.90
2018-07-02T01:37:35.291Z,1010.93
2018-07-02T01:38:10.603Z,1010.92
2018-07-02T01:38:45.925Z,1010.94
2018-07-02T01:39:21.138Z,1010.90
2018-07-02T01:39:56.335Z,1010.90
2018-07-02T01:40:31.754Z,1010.89
2018-07-02T01:41:06.963Z,1010.89
2018-07-02T01:41:42.147Z,1010.92
2018-07-02T01:42:17.502Z,1010.90
2018-07-02T01:42:52.623Z,1010.88
2018-07-02T01:43:27.822Z,1010.90
2018-07-02T01:44:03.161Z,1010.92
2018-07-02T01:44:38.752Z,1010.92
2018-07-02T01:45:13.806Z,1010.90
2018-07-02T01:45:48.907Z,1010.89
2018-07-02T01:46:24.504Z,1010.96
2018-07-02T01:46:59.922Z,1010.93
2018-07-02T01:47:35.520Z,1010.95
2018-07-02T01:48:10.530Z,1010.95
2018-07-02T01:48:45.549Z,1010.96
2018-07-02T01:49:20.879Z,1010.94
2018-07-02T01:49:56.110Z,1010.97
2018-07-02T01:50:31.340Z,1010.98
2018-07-02T01:51:06.669Z,1010.99
2018-07-02T01:51:42.074Z,1011.01
2018-07-02T01:52:17.674Z,1011.03
2018-07-02T01:52:53.007Z,1011.00
2018-07-02T01:53:28.804Z,1011.04
2018-07-02T01:54:04.373Z,1011.02
2018-07-02T01:54:39.657Z,1011.07
2018-07-02T01:55:15.164Z,1011.05
2018-07-02T01:55:50.674Z,1011.05
2018-07-02T01:56:25.818Z,1011.03
2018-07-02T01:57:01.212Z,1011.07
2018-07-02T01:57:36.601Z,1011.10
2018-07-02T01:58:12.140Z,1011.04
2018-07-02T01:58:47.544Z,1011.08
2018-07-02T01:59:22.974Z,1011.08
2018-07-02T01:59:58.291Z,1011.09
2018-07-02T02:00:33.492Z,1011.10
2018-07-02T02:01:08.899Z,1011.07
2018-07-02T02:01:44.397Z,1011.09
2018-07-02T02:02:19.618Z,1011.08
2018-07-02T02:02:54.928Z,1011.10
2018-07-02T02:03:30.240Z,1011.10
2018-07-02T02:04:05.790Z,1011.09
2018-07-02T02:04:41.166Z,1011.11
2018-07-02T02:05:16.287Z,1011.09
2018-07-02T02:05:51.722Z,1011.14
2018-07-02T02:06:27.318Z,1011.13
2018-07-02T02:07:02.957Z,1011.10
2018-07-02T02:07:38.347Z,1011.11
2018-07-02T02:08:13.490Z,1011.10
2018-07-02T02:08:48.985Z,1011.10
2018-07-02T02:09:24.388Z,1011.11
2018-07-02T02:09:59.510Z,1011.11
2018-07-02T02:10:34.543Z,1011.08
2018-07-02T02:11:09.661Z,1011.07
2018-07-02T02:11:45.160Z,1011.06
2018-07-02T02:12:20.180Z,1011.06
2018-07-02T02:12:55.493Z,1011.05
2018-07-02T02:13:30.616Z,1011.03
2018-07-02T02:14:05.562Z,1011.01
2018-07-02T02:14:40.949Z,1011.04
2018-07-02T02:15:16.154Z,1011.03
2018-07-02T02:15:51.452Z,1011.03
2018-07-02T02:16:26.721Z,1011.03
2018-07-02T02:17:02.136Z,1011.01
2018-07-02T02:17:37.536Z,1011.00
2018-07-02T02:18:12.669Z,1011.02
2018-07-02T02:18:48.049Z,1011.03
2018-07-02T02:19:23.169Z,1011.05
2018-07-02T02:19:58.372Z,1011.06
2018-07-02T02:20:33.487Z,1011.07
2018-07-02T02:21:08.832Z,1011.08
2018-07-02T02:21:44.553Z,1011.09
2018-07-02T02:22:19.878Z,1011.05
2018-07-02T02:22:55.522Z,1011.10
2018-07-02T02:23:31.409Z,1011.09
2018-07-02T02:24:06.628Z,1011.10
2018-07-02T02:24:42.118Z,1011.09
2018-07-02T02:25:17.347Z,1011.11
2018-07-02T02:25:52.753Z,1011.09
2018-07-02T02:26:28.384Z,1011.07
2018-07-02T02:27:03.810Z,1011.09
2018-07-02T02:27:39.216Z,1011.07
2018-07-02T02:28:14.441Z,1011.09
2018-07-02T02:28:49.833Z,1011.05
2018-07-02T02:29:25.226Z,1011.08
2018-07-02T02:30:00.627Z,1011.09
2018-07-02T02:30:35.886Z,1011.05
2018-07-02T02:31:11.358Z,1011.08
2018-07-02T02:31:46.463Z,1011.08
2018-07-02T02:32:21.681Z,1011.08
2018-07-02T02:32:57.172Z,1011.04
2018-07-02T02:33:32.480Z,1011.06
2018-07-02T02:34:07.806Z,1011.07
2018-07-02T02:34:43.094Z,1011.06
2018-07-02T02:35:18.504Z,1011.06
2018-07-02T02:35:53.941Z,1011.08
2018-07-02T02:36:29.351Z,1011.06
2018-07-02T02:37:04.684Z,1011.08
2018-07-02T02:37:40.206Z,1011.12
2018-07-02T02:38:16.044Z,1011.11
2018-07-02T02:38:51.452Z,1011.11
2018-07-02T02:39:26.687Z,1011.15
2018-07-02T02:40:01.910Z,1011.15
2018-07-02T02:40:37.515Z,1011.18
2018-07-02T02:41:12.886Z,1011.14
2018-07-02T02:41:47.991Z,1011.17
2018-07-02T02:42:23.163Z,1011.16
2018-07-02T02:42:58.357Z,1011.15
2018-07-02T02:43:33.894Z,1011.21
2018-07-02T02:44:09.108Z,1011.18
2018-07-02T02:44:44.451Z,1011.21
2018-07-02T02:45:20.075Z,1011.19
2018-07-02T02:45:55.365Z,1011.21
2018-07-02T02:46:30.698Z,1011.19
2018-07-02T02:47:05.970Z,1011.19
2018-07-02T02:47:41.287Z,1011.18
2018-07-02T02:48:16.584Z,1011.19
2018-07-02T02:48:51.670Z,1011.20
2018-07-02T02:49:26.883Z,1011.17
2018-07-02T02:50:02.489Z,1011.19
2018-07-02T02:50:38.593Z,1011.16
2018-07-02T02:51:13.835Z,1011.17
2018-07-02T02:51:48.915Z,1011.15
2018-07-02T02:52:24.361Z,1011.15
2018-07-02T02:52:59.842Z,1011.18
2018-07-02T02:53:35.257Z,1011.16
2018-07-02T02:54:10.574Z,1011.15
2018-07-02T02:54:45.595Z,1011.18
2018-07-02T02:55:20.746Z,1011.19
2018-07-02T02:55:55.835Z,1011.19
2018-07-02T02:56:31.581Z,1011.16
2018-07-02T02:57:06.858Z,1011.18
2018-07-02T02:57:41.961Z,1011.21
2018-07-02T02:58:18.189Z,1011.20
2018-07-02T02:58:53.379Z,1011.21
2018-07-02T02:59:29.038Z,1011.21
2018-07-02T03:00:04.124Z,1011.19
2018-07-02T03:00:39.945Z,1011.20
2018-07-02T03:01:15.810Z,1011.19
2018-07-02T03:01:51.392Z,1011.21
2018-07-02T03:02:26.833Z,1011.20
2018-07-02T03:03:02.320Z,1011.22
2018-07-02T03:03:38.045Z,1011.20
2018-07-02T03:04:13.480Z,1011.17
2018-07-02T03:04:48.704Z,1011.14
2018-07-02T03:05:24.005Z,1011.14
2018-07-02T03:05:59.289Z,1011.13
2018-07-02T03:06:34.525Z,1011.13
2018-07-02T03:07:10.033Z,1011.11
2018-07-02T03:07:45.539Z,1011.16
2018-07-02T03:08:20.899Z,1011.16
2018-07-02T03:08:56.133Z,1011.11
2018-07-02T03:09:31.644Z,1011.12
2018-07-02T03:10:07.046Z,1011.18
2018-07-02T03:10:43.054Z,1011.16
2018-07-02T03:11:18.377Z,1011.16
2018-07-02T03:11:53.964Z,1011.22
2018-07-02T03:12:29.450Z,1011.17
2018-07-02T03:13:04.779Z,1011.20
2018-07-02T03:13:40.119Z,1011.21
2018-07-02T03:14:15.735Z,1011.21
2018-07-02T03:14:51.113Z,1011.20
2018-07-02T03:15:26.424Z,1011.24
2018-07-02T03:16:01.925Z,1011.26
2018-07-02T03:16:37.352Z,1011.25
2018-07-02T03:17:12.558Z,1011.27
2018-07-02T03:17:48.176Z,1011.25
2018-07-02T03:18:23.376Z,1011.27
2018-07-02T03:18:58.732Z,1011.21
2018-07-02T03:19:33.967Z,1011.22
2018-07-02T03:20:09.265Z,1011.25
2018-07-02T03:20:44.798Z,1011.23
2018-07-02T03:21:20.318Z,1011.25
2018-07-02T03:21:55.830Z,1011.26
2018-07-02T03:22:31.392Z,1011.28
2018-07-02T03:23:06.879Z,1011.23
2018-07-02T03:23:42.002Z,1011.26
2018-07-02T03:24:17.615Z,1011.28
2018-07-02T03:24:52.795Z,1011.25
2018-07-02T03:25:28.063Z,1011.29
2018-07-02T03:26:03.676Z,1011.26
2018-07-02T03:26:39.435Z,1011.27
2018-07-02T03:27:14.821Z,1011.27
2018-07-02T03:27:50.418Z,1011.30
2018-07-02T03:28:25.684Z,1011.29
2018-07-02T03:29:00.776Z,1011.29
2018-07-02T03:29:36.103Z,1011.27
2018-07-02T03:30:11.409Z,1011.29
2018-07-02T03:30:47.029Z,1011.26
2018-07-02T03:31:22.369Z,1011.25
2018-07-02T03:31:57.683Z,1011.27
2018-07-02T03:32:32.915Z,1011.25
2018-07-02T03:33:08.231Z,1011.27
2018-07-02T03:33:43.848Z,1011.27
2018-07-02T03:34:19.080Z,1011.26
2018-07-02T03:34:54.547Z,1011.27
2018-07-02T03:35:29.982Z,1011.25
2018-07-02T03:36:05.387Z,1011.26
2018-07-02T03:36:41.227Z,1011.29
2018-07-02T03:37:16.415Z,1011.24
2018-07-02T03:37:51.871Z,1011.27
2018-07-02T03:38:27.509Z,1011.29
2018-07-02T03:39:03.021Z,1011.24
2018-07-02T03:39:38.627Z,1011.24
2018-07-02T03:40:14.037Z,1011.23
2018-07-02T03:40:49.689Z,1011.26
2018-07-02T03:41:25.023Z,1011.29
2018-07-02T03:42:00.357Z,1011.27
2018-07-02T03:42:36.184Z,1011.26
2018-07-02T03:43:11.671Z,1011.25
2018-07-02T03:43:47.001Z,1011.24
2018-07-02T03:44:22.488Z,1011.24
2018-07-02T03:44:57.795Z,1011.26
2018-07-02T03:45:32.709Z,1011.26
2018-07-02T03:46:08.109Z,1011.25
2018-07-02T03:46:43.578Z,1011.32
2018-07-02T03:47:18.796Z,1011.30
2018-07-02T03:47:53.950Z,1011.27
2018-07-02T03:48:29.549Z,1011.31
2018-07-02T03:49:04.795Z,1011.28
2018-07-02T03:49:40.019Z,1011.30
2018-07-02T03:50:15.427Z,1011.30
2018-07-02T03:50:50.638Z,1011.30
2018-07-02T03:51:26.248Z,1011.31
2018-07-02T03:52:01.720Z,1011.31
2018-07-02T03:52:36.785Z,1011.32
2018-07-02T03:53:12.134Z,1011.34
2018-07-02T03:53:47.721Z,1011.31
2018-07-02T03:54:22.861Z,1011.35
2018-07-02T03:54:58.141Z,1011.33
2018-07-02T03:55:33.237Z,1011.29
2018-07-02T03:56:08.596Z,1011.30
2018-07-02T03:56:43.887Z,1011.30
2018-07-02T03:57:19.179Z,1011.32
2018-07-02T03:57:54.601Z,1011.30
2018-07-02T03:58:30.100Z,1011.32
2018-07-02T03:59:05.377Z,1011.30
2018-07-02T03:59:40.577Z,1011.29
2018-07-02T04:00:15.887Z,1011.34
2018-07-02T04:00:51.104Z,1011.32
2018-07-02T04:01:27.027Z,1011.25
2018-07-02T04:02:02.271Z,1011.27
2018-07-02T04:02:37.555Z,1011.25
2018-07-02T04:03:13.039Z,1011.28
2018-07-02T04:03:48.393Z,1011.25
2018-07-02T04:04:23.583Z,1011.24
2018-07-02T04:04:58.978Z,1011.25
2018-07-02T04:05:34.157Z,1011.25
2018-07-02T04:06:09.394Z,1011.23
2018-07-02T04:06:44.485Z,1011.25
2018-07-02T04:07:19.848Z,1011.30
2018-07-02T04:07:55.283Z,1011.28
2018-07-02T04:08:30.604Z,1011.30
2018-07-02T04:09:06.036Z,1011.31
2018-07-02T04:09:41.036Z,1011.32
2018-07-02T04:10:16.277Z,1011.29
2018-07-02T04:10:51.670Z,1011.32
2018-07-02T04:11:27.280Z,1011.33
2018-07-02T04:12:02.623Z,1011.29
2018-07-02T04:12:37.929Z,1011.32
2018-07-02T04:13:13.654Z,1011.28
2018-07-02T04:13:48.883Z,1011.27
2018-07-02T04:14:24.518Z,1011.29
2018-07-02T04:14:59.996Z,1011.27
2018-07-02T04:15:35.552Z,1011.24
2018-07-02T04:16:10.903Z,1011.26
2018-07-02T04:16:46.121Z,1011.24
2018-07-02T04:17:21.642Z,1011.28
2018-07-02T04:17:57.387Z,1011.26
2018-07-02T04:18:32.596Z,1011.27
2018-07-02T04:19:08.102Z,1011.30
2018-07-02T04:19:43.481Z,1011.26
2018-07-02T04:20:18.891Z,1011.33
2018-07-02T04:20:54.008Z,1011.31
2018-07-02T04:21:29.397Z,1011.33
2018-07-02T04:22:04.656Z,1011.33
2018-07-02T04:22:39.854Z,1011.35
2018-07-02T04:23:15.257Z,1011.35
2018-07-02T04:23:50.689Z,1011.34
2018-07-02T04:24:25.936Z,1011.38
2018-07-02T04:25:01.554Z,1011.40
2018-07-02T04:25:37.186Z,1011.39
2018-07-02T04:26:12.816Z,1011.40
2018-07-02T04:26:48.048Z,1011.45
2018-07-02T04:27:23.554Z,1011.42
2018-07-02T04:27:59.054Z,1011.41
2018-07-02T04:28:34.251Z,1011.44
2018-07-02T04:29:09.980Z,1011.42
2018-07-02T04:29:45.393Z,1011.43
2018-07-02T04:30:20.494Z,1011.45
2018-07-02T04:30:55.928Z,1011.46
2018-07-02T04:31:31.244Z,1011.46
2018-07-02T04:32:06.756Z,1011.50
2018-07-02T04:32:42.404Z,1011.48
2018-07-02T04:33:17.685Z,1011.46
2018-07-02T04:33:53.096Z,1011.47
2018-07-02T04:34:28.426Z,1011.46
2018-07-02T04:35:03.749Z,1011.48
2018-07-02T04:35:39.256Z,1011.51
2018-07-02T04:36:14.470Z,1011.47
2018-07-02T04:36:49.668Z,1011.46
2018-07-02T04:37:25.316Z,1011.48
2018-07-02T04:38:00.639Z,1011.50
2018-07-02T04:38:36.134Z,1011.48
2018-07-02T04:39:11.459Z,1011.48
2018-07-02T04:39:46.497Z,1011.51
2018-07-02T04:40:21.705Z,1011.51
2018-07-02T04:40:57.218Z,1011.50
2018-07-02T04:41:32.670Z,1011.50
2018-07-02T04:42:08.386Z,1011.49
2018-07-02T04:42:43.906Z,1011.46
2018-07-02T04:43:19.108Z,1011.50
2018-07-02T04:43:54.611Z,1011.49
2018-07-02T04:44:30.032Z,1011.50
2018-07-02T04:45:05.601Z,1011.51
2018-07-02T04:45:41.197Z,1011.53
2018-07-02T04:46:16.439Z,1011.49
2018-07-02T04:46:51.857Z,1011.48
2018-07-02T04:47:27.155Z,1011.43
2018-07-02T04:48:02.584Z,1011.48
2018-07-02T04:48:37.798Z,1011.50
2018-07-02T04:49:13.155Z,1011.52
2018-07-02T04:49:48.623Z,1011.48
2018-07-02T04:50:23.961Z,1011.52
2018-07-02T04:50:59.484Z,1011.51
2018-07-02T04:51:34.918Z,1011.50
2018-07-02T04:52:10.233Z,1011.48
2018-07-02T04:52:45.543Z,1011.52
2018-07-02T04:53:20.806Z,1011.55
2018-07-02T04:53:56.230Z,1011.55
2018-07-02T04:54:31.354Z,1011.56
2018-07-02T04:55:06.812Z,1011.57
2018-07-02T04:55:42.356Z,1011.55
2018-07-02T04:56:17.589Z,1011.57
2018-07-02T04:56:53.001Z,1011.54
2018-07-02T04:57:28.557Z,1011.55
2018-07-02T04:58:03.866Z,1011.59
2018-07-02T04:58:39.120Z,1011.61
2018-07-02T04:59:14.521Z,1011.60
2018-07-02T04:59:50.181Z,1011.58
2018-07-02T05:00:25.752Z,1011.58
2018-07-02T05:01:02.195Z,1011.57
2018-07-02T05:01:37.413Z,1011.59
2018-07-02T05:02:12.743Z,1011.58
2018-07-02T05:02:47.944Z,1011.58
2018-07-02T05:03:23.396Z,1011.64
2018-07-02T05:03:58.625Z,1011.59
2018-07-02T05:04:34.044Z,1011.56
2018-07-02T05:05:09.387Z,1011.60
2018-07-02T05:05:45.088Z,1011.58
2018-07-02T05:06:20.557Z,1011.57
2018-07-02T05:06:56.084Z,1011.57
2018-07-02T05:07:31.442Z,1011.60
2018-07-02T05:08:06.700Z,1011.58
2018-07-02T05:08:41.925Z,1011.56
2018-07-02T05:09:17.148Z,1011.62
2018-07-02T05:09:52.684Z,1011.62
2018-07-02T05:10:28.093Z,1011.60
2018-07-02T05:11:03.483Z,1011.61
2018-07-02T05:11:38.637Z,1011.60
2018-07-02T05:12:13.870Z,1011.60
2018-07-02T05:12:49.166Z,1011.62
2018-07-02T05:13:24.314Z,1011.59
2018-07-02T05:13:59.624Z,1011.58
2018-07-02T05:14:35.239Z,1011.61
2018-07-02T05:15:10.233Z,1011.59
2018-07-02T05:15:45.613Z,1011.56
2018-07-02T05:16:21.210Z,1011.61
2018-07-02T05:16:56.599Z,1011.62
2018-07-02T05:17:32.097Z,1011.61
2018-07-02T05:18:07.399Z,1011.63
2018-07-02T05:18:42.810Z,1011.64
2018-07-02T05:19:18.106Z,1011.57
2018-07-02T05:19:53.534Z,1011.63
2018-07-02T05:20:28.930Z,1011.63
2018-07-02T05:21:04.502Z,1011.67
2018-07-02T05:21:39.895Z,1011.67
2018-07-02T05:22:15.445Z,1011.68
2018-07-02T05:22:50.751Z,1011.65
2018-07-02T05:23:25.969Z,1011.63
2018-07-02T05:24:01.315Z,1011.63
2018-07-02T05:24:36.829Z,1011.64
2018-07-02T05:25:12.165Z,1011.64
2018-07-02T05:25:47.460Z,1011.64
2018-07-02T05:26:22.879Z,1011.62
2018-07-02T05:26:58.204Z,1011.62
2018-07-02T05:27:33.432Z,1011.67
2018-07-02T05:28:08.850Z,1011.63
2018-07-02T05:28:44.357Z,1011.66
2018-07-02T05:29:19.685Z,1011.62
2018-07-02T05:29:55.007Z,1011.62
2018-07-02T05:30:30.224Z,1011.67
2018-07-02T05:31:05.521Z,1011.64
2018-07-02T05:31:40.956Z,1011.62
2018-07-02T05:32:16.401Z,1011.66
2018-07-02T05:32:51.847Z,1011.67
2018-07-02T05:33:26.709Z,1011.65
2018-07-02T05:34:01.933Z,1011.66
2018-07-02T05:34:37.445Z,1011.62
2018-07-02T05:35:12.865Z,1011.62
2018-07-02T05:35:48.509Z,1011.63
2018-07-02T05:36:23.926Z,1011.64
2018-07-02T05:36:59.303Z,1011.64
2018-07-02T05:37:34.791Z,1011.58
2018-07-02T05:38:10.016Z,1011.58
2018-07-02T05:38:45.462Z,1011.63
2018-07-02T05:39:21.065Z,1011.59
2018-07-02T05:39:56.355Z,1011.56
2018-07-02T05:40:31.786Z,1011.59
2018-07-02T05:41:07.026Z,1011.62
2018-07-02T05:41:42.140Z,1011.56
2018-07-02T05:42:17.511Z,1011.64
2018-07-02T05:42:52.494Z,1011.56
2018-07-02T05:43:27.738Z,1011.67
2018-07-02T05:44:03.231Z,1011.61
2018-07-02T05:44:38.651Z,1011.62
2018-07-02T05:45:14.229Z,1011.63
2018-07-02T05:45:49.643Z,1011.62
2018-07-02T05:46:25.330Z,1011.62
2018-07-02T05:47:00.742Z,1011.66
2018-07-02T05:47:36.105Z,1011.64
2018-07-02T05:48:11.486Z,1011.67
2018-07-02T05:48:46.745Z,1011.62
2018-07-02T05:49:22.064Z,1011.67
2018-07-02T05:49:57.403Z,1011.67
2018-07-02T05:50:32.604Z,1011.69
2018-07-02T05:51:07.923Z,1011.68
2018-07-02T05:51:44.453Z,1011.69
2018-07-02T05:52:19.788Z,1011.69
2018-07-02T05:52:55.411Z,1011.69
2018-07-02T05:53:30.599Z,1011.74
2018-07-02T05:54:06.167Z,1011.70
2018-07-02T05:54:41.551Z,1011.69
2018-07-02T05:55:17.104Z,1011.67
2018-07-02T05:55:52.609Z,1011.68
2018-07-02T05:56:27.943Z,1011.67
2018-07-02T05:57:03.237Z,1011.70
2018-07-02T05:57:38.291Z,1011.64
2018-07-02T05:58:14.304Z,1011.63
2018-07-02T05:58:49.621Z,1011.63
2018-07-02T05:59:24.852Z,1011.58
2018-07-02T06:00:00.179Z,1011.61
2018-07-02T06:00:36.268Z,1011.65
2018-07-02T06:01:11.195Z,1011.60
2018-07-02T06:01:46.633Z,1011.60
2018-07-02T06:02:21.965Z,1011.64
2018-07-02T06:02:57.575Z,1011.57
2018-07-02T06:03:33.002Z,1011.60
2018-07-02T06:04:08.610Z,1011.59
2018-07-02T06:04:45.618Z,1011.60
2018-07-02T06:05:20.716Z,1011.60
2018-07-02T06:05:56.237Z,1011.56
2018-07-02T06:06:31.449Z,1011.51
2018-07-02T06:07:06.564Z,1011.61
2018-07-02T06:07:41.990Z,1011.57
2018-07-02T06:08:17.414Z,1011.55
2018-07-02T06:10:53.875Z,1011.56
2018-07-02T06:11:33.304Z,1011.60
2018-07-02T06:12:08.690Z,1011.62
2018-07-02T06:12:47.127Z,1011.60
2018-07-02T06:13:22.325Z,1011.66
2018-07-02T06:14:00.929Z,1011.59
2018-07-02T06:14:36.387Z,1011.58
2018-07-02T06:15:11.532Z,1011.58
2018-07-02T06:15:50.042Z,1011.59
2018-07-02T06:16:25.031Z,1011.54
2018-07-02T06:17:00.405Z,1011.56
2018-07-02T06:17:41.661Z,1011.57
2018-07-02T06:18:16.854Z,1011.56
2018-07-02T06:20:53.403Z,1011.57
2018-07-02T06:21:28.729Z,1011.56
2018-07-02T06:22:07.255Z,1011.56
2018-07-02T06:22:42.474Z,1011.61
2018-07-02T06:23:17.880Z,1011.63
2018-07-02T06:23:54.462Z,1011.59
2018-07-02T06:24:29.852Z,1011.69
2018-07-02T06:25:08.478Z,1011.67
2018-07-02T06:25:49.272Z,1011.77
2018-07-02T06:26:24.375Z,1011.70
2018-07-02T06:26:59.702Z,1011.68
2018-07-02T06:27:35.019Z,1011.68
2018-07-02T06:28:10.306Z,1011.66
2018-07-02T06:28:45.629Z,1011.66
2018-07-02T06:29:21.116Z,1011.67
2018-07-02T06:29:56.424Z,1011.69
2018-07-02T06:30:31.993Z,1011.69
2018-07-02T06:31:07.516Z,1011.72
2018-07-02T06:31:42.809Z,1011.70
2018-07-02T06:32:17.890Z,1011.68
2018-07-02T06:32:53.101Z,1011.70
2018-07-02T06:33:28.313Z,1011.74
2018-07-02T06:34:03.824Z,1011.69
2018-07-02T06:34:42.129Z,1011.71
2018-07-02T06:35:17.386Z,1011.73
2018-07-02T06:35:52.880Z,1011.73
2018-07-02T06:36:28.174Z,1011.76
2018-07-02T06:37:03.316Z,1011.78
2018-07-02T06:37:38.883Z,1011.79
2018-07-02T06:38:14.034Z,1011.79
2018-07-02T06:38:49.138Z,1011.75
2018-07-02T06:39:24.446Z,1011.76
2018-07-02T06:39:59.958Z,1011.74
2018-07-02T06:40:35.382Z,1011.76
2018-07-02T06:41:11.700Z,1011.74
2018-07-02T06:41:47.198Z,1011.70
2018-07-02T06:42:22.511Z,1011.82
2018-07-02T06:42:57.824Z,1011.81
2018-07-02T06:43:33.126Z,1011.77
2018-07-02T06:44:08.619Z,1011.81
2018-07-02T06:44:44.020Z,1011.83
2018-07-02T06:45:19.903Z,1011.80
2018-07-02T06:45:55.119Z,1011.80
2018-07-02T06:46:33.344Z,1011.83
2018-07-02T06:47:08.953Z,1011.81
2018-07-02T06:47:47.680Z,1011.83
2018-07-02T06:48:25.064Z,1011.82
2018-07-02T06:49:00.151Z,1011.79
2018-07-02T06:49:35.229Z,1011.80
2018-07-02T06:50:10.545Z,1011.82
2018-07-02T06:50:45.963Z,1011.83
2018-07-02T06:51:21.383Z,1011.83
2018-07-02T06:51:56.918Z,1011.79
2018-07-02T06:52:32.542Z,1011.80
2018-07-02T06:53:08.115Z,1011.83
2018-07-02T06:53:43.319Z,1011.89
2018-07-02T06:54:18.664Z,1011.85
2018-07-02T06:54:54.242Z,1011.86
2018-07-02T06:55:29.965Z,1011.86
2018-07-02T06:56:05.183Z,1011.89
2018-07-02T06:56:40.717Z,1011.88
2018-07-02T06:57:16.345Z,1011.84
2018-07-02T06:57:51.784Z,1011.88
2018-07-02T06:58:27.259Z,1011.86
2018-07-02T06:59:02.535Z,1011.86
2018-07-02T06:59:38.147Z,1011.84
2018-07-02T07:00:13.472Z,1011.89
2018-07-02T07:00:48.977Z,1011.87
2018-07-02T07:01:24.472Z,1011.90
2018-07-02T07:01:59.891Z,1011.88
2018-07-02T07:02:35.544Z,1011.82
2018-07-02T07:03:11.048Z,1011.79
2018-07-02T07:03:46.798Z,1011.80
2018-07-02T07:04:22.119Z,1011.80
2018-07-02T07:04:57.258Z,1011.78
2018-07-02T07:05:32.760Z,1011.83
2018-07-02T07:06:08.187Z,1011.79
2018-07-02T07:06:43.494Z,1011.81
2018-07-02T07:07:19.093Z,1011.83
2018-07-02T07:07:54.432Z,1011.80
2018-07-02T07:08:29.781Z,1011.79
2018-07-02T07:09:05.069Z,1011.82
2018-07-02T07:09:40.247Z,1011.75
2018-07-02T07:10:15.439Z,1011.80
2018-07-02T07:10:50.935Z,1011.85
2018-07-02T07:11:26.141Z,1011.86
2018-07-02T07:12:01.593Z,1011.89
2018-07-02T07:12:37.147Z,1011.86
2018-07-02T07:13:12.649Z,1011.90
2018-07-02T07:13:47.884Z,1011.88
2018-07-02T07:14:23.612Z,1011.91
2018-07-02T07:14:58.925Z,1011.88
2018-07-02T07:15:34.283Z,1011.90
2018-07-02T07:16:09.523Z,1011.87
2018-07-02T07:16:45.041Z,1011.87
2018-07-02T07:17:20.254Z,1011.90
2018-07-02T07:17:55.782Z,1011.89
2018-07-02T07:18:31.514Z,1011.86
2018-07-02T07:19:06.967Z,1011.91
2018-07-02T07:19:42.297Z,1011.85
2018-07-02T07:20:17.406Z,1011.86